sensor_id;sensor_type;location;lat;lon;timestamp;P1;durP1;ratioP1;P2;durP2;ratioP2
47812;SDS011;34221;45.296;9.516;2023-11-25T00:00:00;24.45;;;18.60;;
47812;SDS011;34221;45.296;9.516;2023-11-25T00:00:15;24.58;;;18.27;;
47812;SDS011;34221;45.296;9.516;2023-11-25T00:00:31;25.02;;;19.27;;
47812;SDS011;34221;45.296;9.516;2023-11-25T00:00:46;23.92;;;19.02;;
47812;SDS011;34221;45.296;9.516;2023-11-25T00:01:02;24.42;;;19.02;;
47812;SDS011;34221;45.296;9.516;2023-11-25T00:01:17;25.58;;;19.42;;
47812;SDS011;34221;45.296;9.516;2023-11-25T00:01:32;25.15;;;19.33;;
47812;SDS011;34221;45.296;9.516;2023-11-25T00:01:46;24.40;;;19.25;;
47812;SDS011;34221;45.296;9.516;2023-11-25T00:02:02;24.63;;;19.80;;
47812;SDS011;34221;45.296;9.516;2023-11-25T00:02:17;24.23;;;19.73;;
47812;SDS011;34221;45.296;9.516;2023-11-25T00:02:33;23.60;;;18.98;;
47812;SDS011;34221;45.296;9.516;2023-11-25T00:02:48;22.52;;;18.27;;
47812;SDS011;34221;45.296;9.516;2023-11-25T00:03:03;22.25;;;17.95;;
47812;SDS011;34221;45.296;9.516;2023-11-25T00:03:18;22.60;;;18.42;;
47812;SDS011;34221;45.296;9.516;2023-11-25T00:03:33;23.08;;;19.20;;
47812;SDS011;34221;45.296;9.516;2023-11-25T00:03:48;23.83;;;19.55;;
47812;SDS011;34221;45.296;9.516;2023-11-25T00:04:03;24.67;;;18.67;;
47812;SDS011;34221;45.296;9.516;2023-11-25T00:04:18;24.83;;;18.40;;
47812;SDS011;34221;45.296;9.516;2023-11-25T00:04:33;29.08;;;18.85;;
47812;SDS011;34221;45.296;9.516;2023-11-25T00:04:48;28.70;;;18.23;;
47812;SDS011;34221;45.296;9.516;2023-11-25T00:05:03;23.15;;;17.88;;
47812;SDS011;34221;45.296;9.516;2023-11-25T00:05:19;22.58;;;17.98;;
47812;SDS011;34221;45.296;9.516;2023-11-25T00:05:34;23.90;;;19.13;;
47812;SDS011;34221;45.296;9.516;2023-11-25T00:05:49;25.40;;;19.88;;
47812;SDS011;34221;45.296;9.516;2023-11-25T00:06:04;24.50;;;19.05;;
47812;SDS011;34221;45.296;9.516;2023-11-25T00:06:19;23.15;;;18.92;;
47812;SDS011;34221;45.296;9.516;2023-11-25T00:06:34;24.88;;;19.33;;
47812;SDS011;34221;45.296;9.516;2023-11-25T00:06:50;25.48;;;18.27;;
47812;SDS011;34221;45.296;9.516;2023-11-25T00:07:05;25.88;;;17.98;;
47812;SDS011;34221;45.296;9.516;2023-11-25T00:07:20;25.75;;;18.42;;
47812;SDS011;34221;45.296;9.516;2023-11-25T00:07:35;23.97;;;17.87;;
47812;SDS011;34221;45.296;9.516;2023-11-25T00:07:49;24.00;;;17.20;;
47812;SDS011;34221;45.296;9.516;2023-11-25T00:08:04;23.03;;;16.90;;
47812;SDS011;34221;45.296;9.516;2023-11-25T00:08:20;22.42;;;17.58;;
47812;SDS011;34221;45.296;9.516;2023-11-25T00:08:35;21.83;;;17.15;;
47812;SDS011;34221;45.296;9.516;2023-11-25T00:08:50;20.98;;;15.95;;
47812;SDS011;34221;45.296;9.516;2023-11-25T00:09:05;22.27;;;16.38;;
47812;SDS011;34221;45.296;9.516;2023-11-25T00:09:20;23.13;;;16.45;;
47812;SDS011;34221;45.296;9.516;2023-11-25T00:09:36;23.50;;;16.23;;
47812;SDS011;34221;45.296;9.516;2023-11-25T00:09:51;22.40;;;16.25;;
47812;SDS011;34221;45.296;9.516;2023-11-25T00:10:08;20.38;;;16.00;;
47812;SDS011;34221;45.296;9.516;2023-11-25T00:10:23;21.40;;;15.90;;
47812;SDS011;34221;45.296;9.516;2023-11-25T00:10:38;19.77;;;15.32;;
47812;SDS011;34221;45.296;9.516;2023-11-25T00:10:54;18.75;;;15.63;;
47812;SDS011;34221;45.296;9.516;2023-11-25T00:11:10;20.27;;;15.63;;
47812;SDS011;34221;45.296;9.516;2023-11-25T00:11:25;20.02;;;14.93;;
47812;SDS011;34221;45.296;9.516;2023-11-25T00:11:40;20.38;;;15.27;;
47812;SDS011;34221;45.296;9.516;2023-11-25T00:11:56;20.17;;;15.18;;
47812;SDS011;34221;45.296;9.516;2023-11-25T00:12:11;20.95;;;15.55;;
47812;SDS011;34221;45.296;9.516;2023-11-25T00:12:26;21.48;;;16.00;;
47812;SDS011;34221;45.296;9.516;2023-11-25T00:12:41;20.52;;;15.38;;
47812;SDS011;34221;45.296;9.516;2023-11-25T00:12:56;20.50;;;15.18;;
47812;SDS011;34221;45.296;9.516;2023-11-25T00:13:11;21.05;;;15.93;;
47812;SDS011;34221;45.296;9.516;2023-11-25T00:13:26;20.45;;;16.13;;
47812;SDS011;34221;45.296;9.516;2023-11-25T00:13:41;19.60;;;15.32;;
47812;SDS011;34221;45.296;9.516;2023-11-25T00:13:56;21.08;;;14.98;;
47812;SDS011;34221;45.296;9.516;2023-11-25T00:14:11;20.73;;;15.43;;
47812;SDS011;34221;45.296;9.516;2023-11-25T00:14:26;20.88;;;15.23;;
47812;SDS011;34221;45.296;9.516;2023-11-25T00:14:41;21.02;;;14.70;;
47812;SDS011;34221;45.296;9.516;2023-11-25T00:14:56;19.58;;;14.80;;
47812;SDS011;34221;45.296;9.516;2023-11-25T00:15:11;17.75;;;14.27;;
47812;SDS011;34221;45.296;9.516;2023-11-25T00:15:26;17.35;;;14.10;;
47812;SDS011;34221;45.296;9.516;2023-11-25T00:15:41;17.77;;;14.13;;
47812;SDS011;34221;45.296;9.516;2023-11-25T00:15:56;17.50;;;14.17;;
47812;SDS011;34221;45.296;9.516;2023-11-25T00:16:11;19.23;;;14.50;;
47812;SDS011;34221;45.296;9.516;2023-11-25T00:16:26;18.95;;;13.98;;
47812;SDS011;34221;45.296;9.516;2023-11-25T00:16:41;17.42;;;12.90;;
47812;SDS011;34221;45.296;9.516;2023-11-25T00:16:56;17.20;;;12.90;;
47812;SDS011;34221;45.296;9.516;2023-11-25T00:17:11;17.55;;;13.48;;
47812;SDS011;34221;45.296;9.516;2023-11-25T00:17:26;17.23;;;13.05;;
47812;SDS011;34221;45.296;9.516;2023-11-25T00:17:42;16.52;;;12.15;;
47812;SDS011;34221;45.296;9.516;2023-11-25T00:17:57;14.93;;;11.10;;
47812;SDS011;34221;45.296;9.516;2023-11-25T00:18:12;14.27;;;11.00;;
47812;SDS011;34221;45.296;9.516;2023-11-25T00:18:27;13.95;;;10.48;;
47812;SDS011;34221;45.296;9.516;2023-11-25T00:18:43;11.57;;;8.60;;
47812;SDS011;34221;45.296;9.516;2023-11-25T00:18:58;13.25;;;8.00;;
47812;SDS011;34221;45.296;9.516;2023-11-25T00:19:13;11.60;;;7.22;;
47812;SDS011;34221;45.296;9.516;2023-11-25T00:19:28;8.13;;;5.65;;
47812;SDS011;34221;45.296;9.516;2023-11-25T00:19:43;8.15;;;5.38;;
47812;SDS011;34221;45.296;9.516;2023-11-25T00:19:58;8.07;;;5.60;;
47812;SDS011;34221;45.296;9.516;2023-11-25T00:20:14;7.63;;;4.93;;
47812;SDS011;34221;45.296;9.516;2023-11-25T00:20:30;6.22;;;3.85;;
47812;SDS011;34221;45.296;9.516;2023-11-25T00:20:45;6.00;;;3.50;;
47812;SDS011;34221;45.296;9.516;2023-11-25T00:21:01;5.88;;;3.30;;
47812;SDS011;34221;45.296;9.516;2023-11-25T00:21:15;5.28;;;2.95;;
47812;SDS011;34221;45.296;9.516;2023-11-25T00:21:30;4.30;;;2.65;;
47812;SDS011;34221;45.296;9.516;2023-11-25T00:21:45;3.65;;;2.50;;
47812;SDS011;34221;45.296;9.516;2023-11-25T00:22:00;3.15;;;2.20;;
47812;SDS011;34221;45.296;9.516;2023-11-25T00:22:15;2.78;;;2.00;;
47812;SDS011;34221;45.296;9.516;2023-11-25T00:22:30;3.25;;;1.95;;
47812;SDS011;34221;45.296;9.516;2023-11-25T00:22:45;3.05;;;1.70;;
47812;SDS011;34221;45.296;9.516;2023-11-25T00:23:00;2.17;;;1.38;;
47812;SDS011;34221;45.296;9.516;2023-11-25T00:23:16;1.88;;;1.20;;
47812;SDS011;34221;45.296;9.516;2023-11-25T00:23:32;1.85;;;1.40;;
47812;SDS011;34221;45.296;9.516;2023-11-25T00:23:47;1.80;;;1.35;;
47812;SDS011;34221;45.296;9.516;2023-11-25T00:24:02;2.75;;;1.33;;
47812;SDS011;34221;45.296;9.516;2023-11-25T00:24:17;2.75;;;1.35;;
47812;SDS011;34221;45.296;9.516;2023-11-25T00:24:32;1.80;;;1.17;;
47812;SDS011;34221;45.296;9.516;2023-11-25T00:24:47;1.40;;;1.00;;
47812;SDS011;34221;45.296;9.516;2023-11-25T00:25:05;1.40;;;0.90;;
47812;SDS011;34221;45.296;9.516;2023-11-25T00:25:22;2.75;;;1.00;;
47812;SDS011;34221;45.296;9.516;2023-11-25T00:25:38;2.67;;;1.00;;
47812;SDS011;34221;45.296;9.516;2023-11-25T00:25:53;1.33;;;0.90;;
47812;SDS011;34221;45.296;9.516;2023-11-25T00:26:08;1.40;;;0.90;;
47812;SDS011;34221;45.296;9.516;2023-11-25T00:26:24;1.10;;;0.80;;
47812;SDS011;34221;45.296;9.516;2023-11-25T00:26:46;0.90;;;0.60;;
47812;SDS011;34221;45.296;9.516;2023-11-25T00:27:01;0.90;;;0.75;;
47812;SDS011;34221;45.296;9.516;2023-11-25T00:27:16;1.30;;;0.90;;
47812;SDS011;34221;45.296;9.516;2023-11-25T00:27:33;1.23;;;0.73;;
47812;SDS011;34221;45.296;9.516;2023-11-25T00:27:48;0.57;;;0.57;;
47812;SDS011;34221;45.296;9.516;2023-11-25T00:28:03;0.60;;;0.60;;
47812;SDS011;34221;45.296;9.516;2023-11-25T00:28:21;0.57;;;0.50;;
47812;SDS011;34221;45.296;9.516;2023-11-25T00:28:36;0.50;;;0.47;;
47812;SDS011;34221;45.296;9.516;2023-11-25T00:28:51;0.60;;;0.50;;
47812;SDS011;34221;45.296;9.516;2023-11-25T00:29:06;0.90;;;0.45;;
47812;SDS011;34221;45.296;9.516;2023-11-25T00:29:23;0.95;;;0.55;;
47812;SDS011;34221;45.296;9.516;2023-11-25T00:29:38;0.88;;;0.60;;
47812;SDS011;34221;45.296;9.516;2023-11-25T00:29:53;0.68;;;0.55;;
47812;SDS011;34221;45.296;9.516;2023-11-25T00:30:08;0.60;;;0.60;;
47812;SDS011;34221;45.296;9.516;2023-11-25T00:30:23;0.50;;;0.50;;
47812;SDS011;34221;45.296;9.516;2023-11-25T00:30:38;0.65;;;0.50;;
47812;SDS011;34221;45.296;9.516;2023-11-25T00:30:53;0.73;;;0.50;;
47812;SDS011;34221;45.296;9.516;2023-11-25T00:31:08;0.50;;;0.50;;
47812;SDS011;34221;45.296;9.516;2023-11-25T00:31:23;0.80;;;0.50;;
47812;SDS011;34221;45.296;9.516;2023-11-25T00:31:39;0.75;;;0.50;;
47812;SDS011;34221;45.296;9.516;2023-11-25T00:31:53;0.47;;;0.47;;
47812;SDS011;34221;45.296;9.516;2023-11-25T00:32:12;0.60;;;0.60;;
47812;SDS011;34221;45.296;9.516;2023-11-25T00:32:27;0.60;;;0.60;;
47812;SDS011;34221;45.296;9.516;2023-11-25T00:32:42;0.60;;;0.60;;
47812;SDS011;34221;45.296;9.516;2023-11-25T00:32:57;0.95;;;0.50;;
47812;SDS011;34221;45.296;9.516;2023-11-25T00:33:13;1.40;;;0.70;;
47812;SDS011;34221;45.296;9.516;2023-11-25T00:33:28;0.63;;;0.60;;
47812;SDS011;34221;45.296;9.516;2023-11-25T00:33:43;0.40;;;0.40;;
47812;SDS011;34221;45.296;9.516;2023-11-25T00:33:58;0.88;;;0.52;;
47812;SDS011;34221;45.296;9.516;2023-11-25T00:34:13;1.10;;;0.52;;
47812;SDS011;34221;45.296;9.516;2023-11-25T00:34:28;0.50;;;0.47;;
47812;SDS011;34221;45.296;9.516;2023-11-25T00:34:43;0.52;;;0.45;;
47812;SDS011;34221;45.296;9.516;2023-11-25T00:34:59;0.88;;;0.50;;
47812;SDS011;34221;45.296;9.516;2023-11-25T00:35:14;0.73;;;0.45;;
47812;SDS011;34221;45.296;9.516;2023-11-25T00:35:30;0.50;;;0.40;;
47812;SDS011;34221;45.296;9.516;2023-11-25T00:35:45;0.47;;;0.40;;
47812;SDS011;34221;45.296;9.516;2023-11-25T00:36:02;0.40;;;0.40;;
47812;SDS011;34221;45.296;9.516;2023-11-25T00:36:18;0.63;;;0.50;;
47812;SDS011;34221;45.296;9.516;2023-11-25T00:36:32;0.70;;;0.50;;
47812;SDS011;34221;45.296;9.516;2023-11-25T00:36:47;0.47;;;0.47;;
47812;SDS011;34221;45.296;9.516;2023-11-25T00:37:03;0.40;;;0.40;;
47812;SDS011;34221;45.296;9.516;2023-11-25T00:37:18;1.02;;;0.50;;
47812;SDS011;34221;45.296;9.516;2023-11-25T00:37:33;1.02;;;0.55;;
47812;SDS011;34221;45.296;9.516;2023-11-25T00:37:49;0.40;;;0.40;;
47812;SDS011;34221;45.296;9.516;2023-11-25T00:38:04;0.70;;;0.40;;
47812;SDS011;34221;45.296;9.516;2023-11-25T00:38:22;0.70;;;0.50;;
47812;SDS011;34221;45.296;9.516;2023-11-25T00:38:37;0.52;;;0.43;;
47812;SDS011;34221;45.296;9.516;2023-11-25T00:38:52;0.40;;;0.40;;
47812;SDS011;34221;45.296;9.516;2023-11-25T00:39:07;0.43;;;0.40;;
47812;SDS011;34221;45.296;9.516;2023-11-25T00:39:22;0.47;;;0.45;;
47812;SDS011;34221;45.296;9.516;2023-11-25T00:39:38;0.50;;;0.50;;
47812;SDS011;34221;45.296;9.516;2023-11-25T00:39:55;0.30;;;0.30;;
47812;SDS011;34221;45.296;9.516;2023-11-25T00:40:10;0.40;;;0.33;;
47812;SDS011;34221;45.296;9.516;2023-11-25T00:40:26;0.60;;;0.40;;
47812;SDS011;34221;45.296;9.516;2023-11-25T00:40:41;0.45;;;0.40;;
47812;SDS011;34221;45.296;9.516;2023-11-25T00:40:56;0.40;;;0.40;;
47812;SDS011;34221;45.296;9.516;2023-11-25T00:41:13;0.40;;;0.40;;
47812;SDS011;34221;45.296;9.516;2023-11-25T00:41:28;0.50;;;0.40;;
47812;SDS011;34221;45.296;9.516;2023-11-25T00:41:43;0.73;;;0.50;;
47812;SDS011;34221;45.296;9.516;2023-11-25T00:42:00;0.65;;;0.47;;
47812;SDS011;34221;45.296;9.516;2023-11-25T00:42:15;0.40;;;0.40;;
47812;SDS011;34221;45.296;9.516;2023-11-25T00:42:30;0.50;;;0.40;;
47812;SDS011;34221;45.296;9.516;2023-11-25T00:42:45;0.30;;;0.30;;
47812;SDS011;34221;45.296;9.516;2023-11-25T00:43:01;0.40;;;0.30;;
47812;SDS011;34221;45.296;9.516;2023-11-25T00:43:16;0.60;;;0.40;;
47812;SDS011;34221;45.296;9.516;2023-11-25T00:43:31;0.75;;;0.60;;
47812;SDS011;34221;45.296;9.516;2023-11-25T00:43:46;0.90;;;0.60;;
47812;SDS011;34221;45.296;9.516;2023-11-25T00:44:01;0.52;;;0.40;;
47812;SDS011;34221;45.296;9.516;2023-11-25T00:44:17;0.32;;;0.32;;
47812;SDS011;34221;45.296;9.516;2023-11-25T00:44:32;0.40;;;0.30;;
47812;SDS011;34221;45.296;9.516;2023-11-25T00:44:47;0.40;;;0.40;;
47812;SDS011;34221;45.296;9.516;2023-11-25T00:45:02;0.30;;;0.30;;
47812;SDS011;34221;45.296;9.516;2023-11-25T00:45:18;0.45;;;0.30;;
47812;SDS011;34221;45.296;9.516;2023-11-25T00:45:33;0.70;;;0.40;;
47812;SDS011;34221;45.296;9.516;2023-11-25T00:45:48;0.90;;;0.40;;
47812;SDS011;34221;45.296;9.516;2023-11-25T00:46:03;1.40;;;0.40;;
47812;SDS011;34221;45.296;9.516;2023-11-25T00:46:18;0.80;;;0.30;;
47812;SDS011;34221;45.296;9.516;2023-11-25T00:46:34;0.30;;;0.30;;
47812;SDS011;34221;45.296;9.516;2023-11-25T00:46:49;0.70;;;0.40;;
47812;SDS011;34221;45.296;9.516;2023-11-25T00:47:04;1.05;;;0.40;;
47812;SDS011;34221;45.296;9.516;2023-11-25T00:47:25;0.60;;;0.40;;
47812;SDS011;34221;45.296;9.516;2023-11-25T00:47:41;0.30;;;0.30;;
47812;SDS011;34221;45.296;9.516;2023-11-25T00:47:57;0.30;;;0.30;;
47812;SDS011;34221;45.296;9.516;2023-11-25T00:48:12;0.20;;;0.20;;
47812;SDS011;34221;45.296;9.516;2023-11-25T00:48:27;0.30;;;0.30;;
47812;SDS011;34221;45.296;9.516;2023-11-25T00:48:43;0.30;;;0.30;;
47812;SDS011;34221;45.296;9.516;2023-11-25T00:48:58;0.25;;;0.25;;
47812;SDS011;34221;45.296;9.516;2023-11-25T00:49:13;0.30;;;0.30;;
47812;SDS011;34221;45.296;9.516;2023-11-25T00:49:29;0.30;;;0.30;;
47812;SDS011;34221;45.296;9.516;2023-11-25T00:49:45;0.30;;;0.30;;
47812;SDS011;34221;45.296;9.516;2023-11-25T00:50:03;0.45;;;0.40;;
47812;SDS011;34221;45.296;9.516;2023-11-25T00:50:19;0.88;;;0.40;;
47812;SDS011;34221;45.296;9.516;2023-11-25T00:50:34;0.52;;;0.38;;
47812;SDS011;34221;45.296;9.516;2023-11-25T00:50:49;0.30;;;0.30;;
47812;SDS011;34221;45.296;9.516;2023-11-25T00:51:05;0.30;;;0.30;;
47812;SDS011;34221;45.296;9.516;2023-11-25T00:51:20;0.65;;;0.40;;
47812;SDS011;34221;45.296;9.516;2023-11-25T00:51:35;1.00;;;0.40;;
47812;SDS011;34221;45.296;9.516;2023-11-25T00:51:53;0.55;;;0.30;;
47812;SDS011;34221;45.296;9.516;2023-11-25T00:52:08;0.30;;;0.30;;
47812;SDS011;34221;45.296;9.516;2023-11-25T00:52:23;0.40;;;0.40;;
47812;SDS011;34221;45.296;9.516;2023-11-25T00:52:38;0.30;;;0.30;;
47812;SDS011;34221;45.296;9.516;2023-11-25T00:52:53;0.40;;;0.40;;
47812;SDS011;34221;45.296;9.516;2023-11-25T00:53:09;0.40;;;0.40;;
47812;SDS011;34221;45.296;9.516;2023-11-25T00:53:24;1.60;;;0.40;;
47812;SDS011;34221;45.296;9.516;2023-11-25T00:53:39;1.55;;;0.40;;
47812;SDS011;34221;45.296;9.516;2023-11-25T00:53:54;0.40;;;0.40;;
47812;SDS011;34221;45.296;9.516;2023-11-25T00:54:09;0.60;;;0.40;;
47812;SDS011;34221;45.296;9.516;2023-11-25T00:54:26;0.52;;;0.30;;
47812;SDS011;34221;45.296;9.516;2023-11-25T00:54:43;0.35;;;0.30;;
47812;SDS011;34221;45.296;9.516;2023-11-25T00:54:58;0.50;;;0.30;;
47812;SDS011;34221;45.296;9.516;2023-11-25T00:55:13;0.43;;;0.38;;
47812;SDS011;34221;45.296;9.516;2023-11-25T00:55:29;0.60;;;0.40;;
47812;SDS011;34221;45.296;9.516;2023-11-25T00:55:44;0.55;;;0.40;;
47812;SDS011;34221;45.296;9.516;2023-11-25T00:56:00;0.57;;;0.40;;
47812;SDS011;34221;45.296;9.516;2023-11-25T00:56:15;0.47;;;0.40;;
47812;SDS011;34221;45.296;9.516;2023-11-25T00:56:31;0.85;;;0.55;;
47812;SDS011;34221;45.296;9.516;2023-11-25T00:56:46;1.53;;;0.73;;
47812;SDS011;34221;45.296;9.516;2023-11-25T00:57:00;1.20;;;0.60;;
47812;SDS011;34221;45.296;9.516;2023-11-25T00:57:15;1.37;;;0.47;;
47812;SDS011;34221;45.296;9.516;2023-11-25T00:57:30;1.10;;;0.40;;
47812;SDS011;34221;45.296;9.516;2023-11-25T00:57:46;0.65;;;0.30;;
47812;SDS011;34221;45.296;9.516;2023-11-25T00:58:01;1.00;;;0.30;;
47812;SDS011;34221;45.296;9.516;2023-11-25T00:58:17;0.70;;;0.38;;
47812;SDS011;34221;45.296;9.516;2023-11-25T00:58:33;0.80;;;0.40;;
47812;SDS011;34221;45.296;9.516;2023-11-25T00:58:47;0.80;;;0.40;;
47812;SDS011;34221;45.296;9.516;2023-11-25T00:59:02;0.40;;;0.40;;
47812;SDS011;34221;45.296;9.516;2023-11-25T00:59:17;0.38;;;0.38;;
47812;SDS011;34221;45.296;9.516;2023-11-25T00:59:32;0.30;;;0.30;;
47812;SDS011;34221;45.296;9.516;2023-11-25T00:59:47;0.30;;;0.30;;
47812;SDS011;34221;45.296;9.516;2023-11-25T01:00:03;0.70;;;0.40;;
47812;SDS011;34221;45.296;9.516;2023-11-25T01:00:19;1.00;;;0.50;;
47812;SDS011;34221;45.296;9.516;2023-11-25T01:00:37;0.50;;;0.40;;
47812;SDS011;34221;45.296;9.516;2023-11-25T01:00:52;0.45;;;0.40;;
47812;SDS011;34221;45.296;9.516;2023-11-25T01:01:07;0.30;;;0.30;;
47812;SDS011;34221;45.296;9.516;2023-11-25T01:01:22;0.40;;;0.30;;
47812;SDS011;34221;45.296;9.516;2023-11-25T01:01:37;0.47;;;0.30;;
47812;SDS011;34221;45.296;9.516;2023-11-25T01:01:52;0.60;;;0.30;;
47812;SDS011;34221;45.296;9.516;2023-11-25T01:02:07;0.52;;;0.30;;
47812;SDS011;34221;45.296;9.516;2023-11-25T01:02:22;0.30;;;0.30;;
47812;SDS011;34221;45.296;9.516;2023-11-25T01:02:39;0.30;;;0.30;;
47812;SDS011;34221;45.296;9.516;2023-11-25T01:02:54;0.90;;;0.40;;
47812;SDS011;34221;45.296;9.516;2023-11-25T01:03:10;1.70;;;0.40;;
47812;SDS011;34221;45.296;9.516;2023-11-25T01:03:25;1.10;;;0.30;;
47812;SDS011;34221;45.296;9.516;2023-11-25T01:03:41;0.30;;;0.30;;
47812;SDS011;34221;45.296;9.516;2023-11-25T01:03:56;0.70;;;0.40;;
47812;SDS011;34221;45.296;9.516;2023-11-25T01:04:11;0.82;;;0.45;;
47812;SDS011;34221;45.296;9.516;2023-11-25T01:04:26;0.38;;;0.30;;
47812;SDS011;34221;45.296;9.516;2023-11-25T01:04:41;0.38;;;0.30;;
47812;SDS011;34221;45.296;9.516;2023-11-25T01:04:57;0.30;;;0.30;;
47812;SDS011;34221;45.296;9.516;2023-11-25T01:05:12;1.00;;;0.60;;
47812;SDS011;34221;45.296;9.516;2023-11-25T01:05:27;1.20;;;0.60;;
47812;SDS011;34221;45.296;9.516;2023-11-25T01:05:42;0.30;;;0.30;;
47812;SDS011;34221;45.296;9.516;2023-11-25T01:05:57;0.32;;;0.30;;
47812;SDS011;34221;45.296;9.516;2023-11-25T01:06:14;0.50;;;0.30;;
47812;SDS011;34221;45.296;9.516;2023-11-25T01:06:29;0.32;;;0.30;;
47812;SDS011;34221;45.296;9.516;2023-11-25T01:06:44;0.22;;;0.22;;
47812;SDS011;34221;45.296;9.516;2023-11-25T01:07:01;0.30;;;0.30;;
47812;SDS011;34221;45.296;9.516;2023-11-25T01:07:17;0.30;;;0.30;;
47812;SDS011;34221;45.296;9.516;2023-11-25T01:07:33;0.57;;;0.50;;
47812;SDS011;34221;45.296;9.516;2023-11-25T01:07:48;0.57;;;0.43;;
47812;SDS011;34221;45.296;9.516;2023-11-25T01:08:03;0.70;;;0.40;;
47812;SDS011;34221;45.296;9.516;2023-11-25T01:08:20;1.15;;;0.45;;
47812;SDS011;34221;45.296;9.516;2023-11-25T01:08:35;2.10;;;0.40;;
47812;SDS011;34221;45.296;9.516;2023-11-25T01:08:51;1.40;;;0.40;;
47812;SDS011;34221;45.296;9.516;2023-11-25T01:09:07;0.32;;;0.32;;
47812;SDS011;34221;45.296;9.516;2023-11-25T01:09:22;0.50;;;0.40;;
47812;SDS011;34221;45.296;9.516;2023-11-25T01:09:40;0.55;;;0.40;;
47812;SDS011;34221;45.296;9.516;2023-11-25T01:09:54;0.70;;;0.40;;
47812;SDS011;34221;45.296;9.516;2023-11-25T01:10:09;0.50;;;0.30;;
47812;SDS011;34221;45.296;9.516;2023-11-25T01:10:24;0.30;;;0.30;;
47812;SDS011;34221;45.296;9.516;2023-11-25T01:10:40;0.30;;;0.30;;
47812;SDS011;34221;45.296;9.516;2023-11-25T01:10:55;0.40;;;0.40;;
47812;SDS011;34221;45.296;9.516;2023-11-25T01:11:10;0.50;;;0.50;;
47812;SDS011;34221;45.296;9.516;2023-11-25T01:11:25;1.00;;;0.40;;
47812;SDS011;34221;45.296;9.516;2023-11-25T01:11:40;0.80;;;0.30;;
47812;SDS011;34221;45.296;9.516;2023-11-25T01:11:55;0.30;;;0.30;;
47812;SDS011;34221;45.296;9.516;2023-11-25T01:12:10;0.30;;;0.30;;
47812;SDS011;34221;45.296;9.516;2023-11-25T01:12:25;0.30;;;0.30;;
47812;SDS011;34221;45.296;9.516;2023-11-25T01:12:40;0.25;;;0.25;;
47812;SDS011;34221;45.296;9.516;2023-11-25T01:12:55;0.30;;;0.30;;
47812;SDS011;34221;45.296;9.516;2023-11-25T01:13:10;0.32;;;0.30;;
47812;SDS011;34221;45.296;9.516;2023-11-25T01:13:25;0.90;;;0.60;;
47812;SDS011;34221;45.296;9.516;2023-11-25T01:13:41;0.90;;;0.60;;
47812;SDS011;34221;45.296;9.516;2023-11-25T01:13:56;1.10;;;0.30;;
47812;SDS011;34221;45.296;9.516;2023-11-25T01:14:11;1.00;;;0.30;;
47812;SDS011;34221;45.296;9.516;2023-11-25T01:14:26;0.30;;;0.30;;
47812;SDS011;34221;45.296;9.516;2023-11-25T01:14:41;0.32;;;0.32;;
47812;SDS011;34221;45.296;9.516;2023-11-25T01:14:56;0.40;;;0.40;;
47812;SDS011;34221;45.296;9.516;2023-11-25T01:15:11;0.40;;;0.40;;
47812;SDS011;34221;45.296;9.516;2023-11-25T01:15:26;0.30;;;0.30;;
47812;SDS011;34221;45.296;9.516;2023-11-25T01:15:42;0.30;;;0.30;;
47812;SDS011;34221;45.296;9.516;2023-11-25T01:15:57;0.50;;;0.30;;
47812;SDS011;34221;45.296;9.516;2023-11-25T01:16:16;0.73;;;0.40;;
47812;SDS011;34221;45.296;9.516;2023-11-25T01:16:32;0.63;;;0.40;;
47812;SDS011;34221;45.296;9.516;2023-11-25T01:16:49;0.80;;;0.30;;
47812;SDS011;34221;45.296;9.516;2023-11-25T01:17:04;0.70;;;0.30;;
47812;SDS011;34221;45.296;9.516;2023-11-25T01:17:20;0.30;;;0.30;;
47812;SDS011;34221;45.296;9.516;2023-11-25T01:17:35;0.30;;;0.30;;
47812;SDS011;34221;45.296;9.516;2023-11-25T01:17:50;0.35;;;0.30;;
47812;SDS011;34221;45.296;9.516;2023-11-25T01:18:06;0.50;;;0.30;;
47812;SDS011;34221;45.296;9.516;2023-11-25T01:18:21;0.40;;;0.30;;
47812;SDS011;34221;45.296;9.516;2023-11-25T01:18:36;0.30;;;0.30;;
47812;SDS011;34221;45.296;9.516;2023-11-25T01:18:51;0.52;;;0.30;;
47812;SDS011;34221;45.296;9.516;2023-11-25T01:19:06;12.57;;;0.60;;
47812;SDS011;34221;45.296;9.516;2023-11-25T01:19:22;12.18;;;0.60;;
47812;SDS011;34221;45.296;9.516;2023-11-25T01:19:37;0.30;;;0.30;;
47812;SDS011;34221;45.296;9.516;2023-11-25T01:19:52;0.40;;;0.38;;
47812;SDS011;34221;45.296;9.516;2023-11-25T01:20:07;0.70;;;0.50;;
47812;SDS011;34221;45.296;9.516;2023-11-25T01:20:24;0.52;;;0.50;;
47812;SDS011;34221;45.296;9.516;2023-11-25T01:20:39;0.30;;;0.30;;
47812;SDS011;34221;45.296;9.516;2023-11-25T01:20:54;0.55;;;0.30;;
47812;SDS011;34221;45.296;9.516;2023-11-25T01:21:10;0.80;;;0.30;;
47812;SDS011;34221;45.296;9.516;2023-11-25T01:21:25;0.50;;;0.38;;
47812;SDS011;34221;45.296;9.516;2023-11-25T01:21:40;0.50;;;0.40;;
47812;SDS011;34221;45.296;9.516;2023-11-25T01:21:55;0.30;;;0.30;;
47812;SDS011;34221;45.296;9.516;2023-11-25T01:22:10;0.30;;;0.30;;
47812;SDS011;34221;45.296;9.516;2023-11-25T01:22:25;0.40;;;0.40;;
47812;SDS011;34221;45.296;9.516;2023-11-25T01:22:40;0.38;;;0.38;;
47812;SDS011;34221;45.296;9.516;2023-11-25T01:22:55;0.40;;;0.40;;
47812;SDS011;34221;45.296;9.516;2023-11-25T01:23:10;0.43;;;0.43;;
47812;SDS011;34221;45.296;9.516;2023-11-25T01:23:25;0.60;;;0.40;;
47812;SDS011;34221;45.296;9.516;2023-11-25T01:23:40;0.35;;;0.30;;
47812;SDS011;34221;45.296;9.516;2023-11-25T01:23:55;0.30;;;0.30;;
47812;SDS011;34221;45.296;9.516;2023-11-25T01:24:10;0.60;;;0.30;;
47812;SDS011;34221;45.296;9.516;2023-11-25T01:24:26;0.63;;;0.30;;
47812;SDS011;34221;45.296;9.516;2023-11-25T01:24:40;0.50;;;0.50;;
47812;SDS011;34221;45.296;9.516;2023-11-25T01:24:55;0.50;;;0.50;;
47812;SDS011;34221;45.296;9.516;2023-11-25T01:25:10;0.30;;;0.30;;
47812;SDS011;34221;45.296;9.516;2023-11-25T01:25:25;0.40;;;0.40;;
47812;SDS011;34221;45.296;9.516;2023-11-25T01:25:40;0.30;;;0.30;;
47812;SDS011;34221;45.296;9.516;2023-11-25T01:25:56;0.30;;;0.30;;
47812;SDS011;34221;45.296;9.516;2023-11-25T01:26:11;0.52;;;0.40;;
47812;SDS011;34221;45.296;9.516;2023-11-25T01:26:26;0.60;;;0.40;;
47812;SDS011;34221;45.296;9.516;2023-11-25T01:26:41;0.30;;;0.30;;
47812;SDS011;34221;45.296;9.516;2023-11-25T01:26:56;0.25;;;0.25;;
47812;SDS011;34221;45.296;9.516;2023-11-25T01:27:12;0.30;;;0.30;;
47812;SDS011;34221;45.296;9.516;2023-11-25T01:27:28;0.75;;;0.30;;
47812;SDS011;34221;45.296;9.516;2023-11-25T01:27:43;0.95;;;0.30;;
47812;SDS011;34221;45.296;9.516;2023-11-25T01:27:58;0.55;;;0.30;;
47812;SDS011;34221;45.296;9.516;2023-11-25T01:28:13;0.45;;;0.30;;
47812;SDS011;34221;45.296;9.516;2023-11-25T01:28:28;0.60;;;0.40;;
47812;SDS011;34221;45.296;9.516;2023-11-25T01:28:44;0.40;;;0.40;;
47812;SDS011;34221;45.296;9.516;2023-11-25T01:28:59;0.40;;;0.40;;
47812;SDS011;34221;45.296;9.516;2023-11-25T01:29:14;0.40;;;0.40;;
47812;SDS011;34221;45.296;9.516;2023-11-25T01:29:29;0.30;;;0.30;;
47812;SDS011;34221;45.296;9.516;2023-11-25T01:29:43;0.30;;;0.30;;
47812;SDS011;34221;45.296;9.516;2023-11-25T01:29:58;0.30;;;0.30;;
47812;SDS011;34221;45.296;9.516;2023-11-25T01:30:14;0.30;;;0.30;;
47812;SDS011;34221;45.296;9.516;2023-11-25T01:30:29;0.30;;;0.30;;
47812;SDS011;34221;45.296;9.516;2023-11-25T01:30:47;0.30;;;0.30;;
47812;SDS011;34221;45.296;9.516;2023-11-25T01:31:04;0.30;;;0.30;;
47812;SDS011;34221;45.296;9.516;2023-11-25T01:31:19;0.30;;;0.30;;
47812;SDS011;34221;45.296;9.516;2023-11-25T01:31:34;0.30;;;0.30;;
47812;SDS011;34221;45.296;9.516;2023-11-25T01:31:49;0.30;;;0.30;;
47812;SDS011;34221;45.296;9.516;2023-11-25T01:32:04;0.30;;;0.30;;